createdAt,value
2019-05-15T00:00:11.332Z,10.71
2019-05-15T00:02:39.072Z,10.67
2019-05-15T00:05:08.821Z,10.63
2019-05-15T00:07:34.029Z,10.60
2019-05-15T00:10:01.530Z,10.55
2019-05-15T00:12:29.052Z,10.52
2019-05-15T00:14:58.092Z,10.50
2019-05-15T00:17:24.122Z,10.48
2019-05-15T00:19:51.764Z,10.45
2019-05-15T00:22:19.210Z,10.45
2019-05-15T00:24:48.678Z,10.48
2019-05-15T00:27:15.313Z,10.46
2019-05-15T00:29:43.035Z,10.41
2019-05-15T00:32:10.496Z,10.36
2019-05-15T00:34:38.297Z,10.35
2019-05-15T00:37:05.773Z,10.32
2019-05-15T00:39:33.209Z,10.32
2019-05-15T00:42:00.656Z,10.31
2019-05-15T00:44:28.165Z,10.29
2019-05-15T00:46:55.607Z,10.30
2019-05-15T00:49:23.043Z,10.27
2019-05-15T00:51:50.518Z,10.21
2019-05-15T00:54:19.181Z,10.19
2019-05-15T00:56:45.584Z,10.18
2019-05-15T00:59:24.176Z,10.21
2019-05-15T01:01:40.512Z,10.20
2019-05-15T01:04:08.129Z,10.19
2019-05-15T01:06:35.447Z,10.13
2019-05-15T01:09:03.166Z,10.15
2019-05-15T01:11:31.408Z,10.17
2019-05-15T01:13:58.919Z,10.12
2019-05-15T01:16:28.129Z,10.10
2019-05-15T01:18:53.853Z,10.10
2019-05-15T01:21:21.294Z,10.10
2019-05-15T01:23:48.852Z,10.09
2019-05-15T01:26:18.660Z,10.07
2019-05-15T01:28:43.792Z,10.05
2019-05-15T01:31:11.259Z,10.01
2019-05-15T01:33:39.243Z,9.96
2019-05-15T01:36:08.420Z,9.94
2019-05-15T01:38:33.838Z,9.87
2019-05-15T01:41:01.284Z,9.84
2019-05-15T01:43:29.264Z,9.87
2019-05-15T01:45:58.734Z,9.81
2019-05-15T01:48:23.723Z,9.81
2019-05-15T01:50:51.197Z,9.83
2019-05-15T01:53:18.827Z,9.80
2019-05-15T01:55:48.255Z,9.84
2019-05-15T01:58:13.665Z,9.81
2019-05-15T02:00:41.122Z,9.82
2019-05-15T02:03:09.785Z,9.84
2019-05-15T02:05:38.817Z,9.84
2019-05-15T02:08:03.973Z,9.87
2019-05-15T02:10:31.411Z,9.86
2019-05-15T02:12:59.671Z,9.83
2019-05-15T02:15:28.581Z,9.88
2019-05-15T02:17:54.663Z,9.86
2019-05-15T02:20:22.107Z,9.78
2019-05-15T02:22:49.580Z,9.76
2019-05-15T02:25:18.547Z,9.74
2019-05-15T02:27:44.612Z,9.71
2019-05-15T02:30:21.390Z,9.72
2019-05-15T02:32:40.254Z,9.67
2019-05-15T02:35:09.922Z,9.66
2019-05-15T02:37:34.695Z,9.61
2019-05-15T02:40:02.323Z,9.59
2019-05-15T02:42:30.010Z,9.59
2019-05-15T02:44:58.662Z,9.61
2019-05-15T02:47:24.937Z,9.66
2019-05-15T02:49:52.402Z,9.60
2019-05-15T02:52:20.235Z,9.61
2019-05-15T02:54:49.785Z,9.60
2019-05-15T02:57:14.976Z,9.60
2019-05-15T02:59:42.775Z,9.59
2019-05-15T03:02:10.513Z,9.56
2019-05-15T03:04:39.987Z,9.51
2019-05-15T03:07:09.381Z,9.49
2019-05-15T03:09:33.285Z,9.48
2019-05-15T03:12:00.761Z,9.42
2019-05-15T03:14:29.087Z,9.42
2019-05-15T03:16:55.710Z,9.36
2019-05-15T03:19:23.243Z,9.35
2019-05-15T03:21:50.808Z,9.33
2019-05-15T03:24:19.454Z,9.23
2019-05-15T03:26:45.739Z,9.20
2019-05-15T03:29:13.177Z,9.18
2019-05-15T03:31:59.108Z,9.17
2019-05-15T03:34:19.283Z,9.14
2019-05-15T03:36:35.625Z,9.10
2019-05-15T03:39:03.673Z,9.08
2019-05-15T03:41:31.195Z,9.01
2019-05-15T03:43:59.603Z,9.04
2019-05-15T03:46:29.165Z,9.02
2019-05-15T03:48:54.353Z,8.95
2019-05-15T03:51:21.367Z,8.88
2019-05-15T03:53:49.774Z,8.85
2019-05-15T03:56:18.887Z,8.88
2019-05-15T03:58:43.778Z,8.85
2019-05-15T04:01:28.347Z,8.87
2019-05-15T04:03:39.789Z,8.85
2019-05-15T04:06:10.173Z,8.82
2019-05-15T04:08:34.760Z,8.86
2019-05-15T04:11:02.198Z,8.90
2019-05-15T04:13:30.205Z,8.88
2019-05-15T04:15:59.328Z,8.83
2019-05-15T04:18:25.024Z,8.81
2019-05-15T04:20:53.990Z,8.74
2019-05-15T04:23:21.559Z,8.71
2019-05-15T04:25:49.440Z,8.69
2019-05-15T04:28:19.237Z,8.70
2019-05-15T04:30:44.455Z,8.68
2019-05-15T04:33:11.991Z,8.74
2019-05-15T04:35:40.650Z,8.73
2019-05-15T04:38:09.398Z,8.77
2019-05-15T04:40:39.246Z,8.74
2019-05-15T04:43:03.892Z,8.69
2019-05-15T04:45:34.889Z,8.68
2019-05-15T04:47:59.085Z,8.70
2019-05-15T04:50:28.759Z,8.72
2019-05-15T04:52:54.084Z,8.74
2019-05-15T04:55:22.235Z,8.77
2019-05-15T04:57:50.273Z,8.78
2019-05-15T05:00:19.884Z,8.76
2019-05-15T05:02:44.675Z,8.74
2019-05-15T05:05:12.274Z,8.83
2019-05-15T05:07:40.146Z,8.89
2019-05-15T05:10:09.529Z,8.95
2019-05-15T05:12:35.092Z,9.03
2019-05-15T05:15:02.558Z,9.14
2019-05-15T05:17:30.066Z,9.22
2019-05-15T05:19:58.331Z,9.14
2019-05-15T05:22:25.225Z,9.10
2019-05-15T05:24:52.690Z,9.05
2019-05-15T05:27:20.121Z,9.15
2019-05-15T05:29:48.080Z,9.28
2019-05-15T05:32:28.810Z,9.28
2019-05-15T05:34:42.540Z,9.37
2019-05-15T05:37:10.092Z,9.44
2019-05-15T05:39:39.314Z,9.53
2019-05-15T05:42:05.273Z,9.59
2019-05-15T05:44:32.741Z,9.62
2019-05-15T05:47:00.198Z,9.67
2019-05-15T05:49:28.835Z,9.77
2019-05-15T05:51:55.128Z,9.77
2019-05-15T05:54:22.723Z,9.97
2019-05-15T05:56:50.185Z,9.90
2019-05-15T05:59:18.552Z,9.99
2019-05-15T06:01:45.142Z,10.08
2019-05-15T06:04:12.612Z,10.15
2019-05-15T06:06:40.115Z,10.17
2019-05-15T06:09:09.245Z,10.10
2019-05-15T06:11:35.078Z,10.12
2019-05-15T06:14:02.710Z,10.19
2019-05-15T06:16:30.167Z,10.19
2019-05-15T06:18:58.673Z,10.14
2019-05-15T06:21:25.399Z,10.37
2019-05-15T06:23:55.954Z,10.50
2019-05-15T06:26:20.426Z,10.60
2019-05-15T06:28:48.984Z,10.67
2019-05-15T06:31:15.829Z,10.70
2019-05-15T06:33:43.468Z,10.72
2019-05-15T06:36:10.455Z,10.73
2019-05-15T06:38:39.307Z,10.69
2019-05-15T06:41:05.515Z,10.68
2019-05-15T06:43:33.033Z,10.66
2019-05-15T06:46:00.492Z,10.66
2019-05-15T06:48:28.908Z,10.61
2019-05-15T06:50:57.833Z,10.55
2019-05-15T06:53:23.100Z,10.63
2019-05-15T06:55:50.735Z,10.73
2019-05-15T06:58:19.194Z,10.58
2019-05-15T07:00:48.433Z,10.63
2019-05-15T07:03:21.551Z,10.77
2019-05-15T07:05:40.694Z,10.86
2019-05-15T07:08:09.039Z,10.82
2019-05-15T07:10:37.680Z,10.72
2019-05-15T07:13:03.353Z,10.71
2019-05-15T07:15:30.810Z,10.75
2019-05-15T07:17:58.256Z,10.75
2019-05-15T07:20:28.353Z,10.84
2019-05-15T07:22:53.303Z,11.00
2019-05-15T07:25:20.816Z,11.14
2019-05-15T07:27:47.973Z,11.20
2019-05-15T07:30:14.833Z,11.21
2019-05-15T07:32:41.841Z,11.15
2019-05-15T07:35:09.408Z,11.24
2019-05-15T07:37:38.674Z,11.33
2019-05-15T07:40:04.717Z,11.63
2019-05-15T07:42:31.863Z,11.69
2019-05-15T07:44:59.337Z,11.72
2019-05-15T07:47:29.224Z,11.67
2019-05-15T07:49:54.477Z,11.79
2019-05-15T07:52:22.222Z,11.90
2019-05-15T07:54:49.732Z,11.97
2019-05-15T07:57:19.311Z,11.86
2019-05-15T07:59:45.319Z,11.83
2019-05-15T08:02:12.855Z,11.82
2019-05-15T08:04:40.877Z,11.87
2019-05-15T08:07:09.129Z,11.98
2019-05-15T08:09:35.880Z,12.16
2019-05-15T08:12:03.474Z,12.30
2019-05-15T08:14:30.825Z,12.30
2019-05-15T08:16:59.197Z,12.30
2019-05-15T08:19:25.871Z,12.26
2019-05-15T08:21:53.320Z,12.36
2019-05-15T08:24:20.810Z,12.48
2019-05-15T08:26:48.781Z,12.53
2019-05-15T08:29:19.166Z,12.74
2019-05-15T08:31:43.375Z,12.75
2019-05-15T08:34:15.902Z,12.76
2019-05-15T08:36:38.602Z,12.80
2019-05-15T08:39:08.345Z,12.89
2019-05-15T08:41:33.360Z,12.86
2019-05-15T08:44:00.810Z,12.58
2019-05-15T08:46:28.356Z,12.63
2019-05-15T08:48:58.173Z,12.75
2019-05-15T08:51:23.368Z,12.82
2019-05-15T08:53:50.818Z,12.93
2019-05-15T08:56:19.393Z,13.17
2019-05-15T08:58:45.780Z,13.45
2019-05-15T09:01:13.245Z,13.65
2019-05-15T09:03:40.737Z,13.72
2019-05-15T09:06:09.194Z,13.72
2019-05-15T09:08:38.754Z,13.77
2019-05-15T09:11:03.661Z,13.89
2019-05-15T09:13:31.178Z,13.77
2019-05-15T09:15:59.020Z,13.78
2019-05-15T09:18:28.199Z,13.96
2019-05-15T09:20:53.624Z,14.05
2019-05-15T09:23:21.191Z,14.04
2019-05-15T09:25:49.548Z,14.15
2019-05-15T09:28:18.623Z,14.35
2019-05-15T09:30:43.684Z,14.46
2019-05-15T09:33:11.162Z,14.63
2019-05-15T09:35:39.392Z,14.51
2019-05-15T09:38:08.524Z,14.47
2019-05-15T09:40:45.278Z,14.71
2019-05-15T09:43:01.300Z,14.79
2019-05-15T09:45:28.762Z,14.88
2019-05-15T09:47:58.969Z,15.10
2019-05-15T09:50:24.530Z,15.15
2019-05-15T09:52:52.017Z,15.05
2019-05-15T09:55:19.719Z,15.21
2019-05-15T09:57:49.122Z,15.36
2019-05-15T10:00:14.854Z,15.48
2019-05-15T10:02:42.315Z,15.42
2019-05-15T10:05:11.328Z,15.15
2019-05-15T10:07:40.123Z,15.29
2019-05-15T10:10:08.538Z,15.31
2019-05-15T10:12:35.074Z,15.15
2019-05-15T10:15:01.925Z,15.13
2019-05-15T10:17:29.511Z,15.23
2019-05-15T10:19:58.229Z,15.10
2019-05-15T10:22:24.686Z,15.05
2019-05-15T10:24:52.219Z,15.04
2019-05-15T10:27:19.770Z,15.01
2019-05-15T10:29:48.427Z,15.09
2019-05-15T10:32:14.788Z,15.42
2019-05-15T10:34:42.336Z,15.53
2019-05-15T10:37:09.793Z,15.64
2019-05-15T10:39:38.471Z,15.82
2019-05-15T10:42:05.303Z,15.64
2019-05-15T10:44:32.784Z,15.93
2019-05-15T10:47:00.218Z,15.88
2019-05-15T10:49:28.229Z,16.06
2019-05-15T10:51:55.365Z,16.30
2019-05-15T10:54:22.878Z,16.40
2019-05-15T10:56:50.495Z,16.42
2019-05-15T10:59:18.419Z,16.57
2019-05-15T11:01:48.471Z,16.80
2019-05-15T11:04:13.352Z,16.91
2019-05-15T11:06:40.846Z,16.86
2019-05-15T11:09:08.696Z,16.87
2019-05-15T11:11:35.882Z,17.01
2019-05-15T11:14:03.323Z,17.21
2019-05-15T11:16:30.777Z,17.44
2019-05-15T11:18:58.589Z,17.49
2019-05-15T11:21:25.310Z,17.59
2019-05-15T11:23:52.855Z,17.65
2019-05-15T11:26:20.481Z,17.45
2019-05-15T11:28:49.722Z,17.35
2019-05-15T11:31:15.495Z,17.29
2019-05-15T11:33:42.985Z,17.38
2019-05-15T11:36:10.009Z,17.27
2019-05-15T11:38:38.207Z,17.21
2019-05-15T11:41:08.424Z,17.05
2019-05-15T11:43:33.484Z,17.08
2019-05-15T11:46:00.945Z,17.15
2019-05-15T11:48:29.830Z,16.92
2019-05-15T11:50:55.901Z,17.19
2019-05-15T11:53:24.267Z,17.41
2019-05-15T11:55:51.763Z,17.64
2019-05-15T11:58:19.389Z,17.85
2019-05-15T12:00:48.797Z,17.80
2019-05-15T12:03:14.259Z,17.96
2019-05-15T12:05:41.899Z,18.03
2019-05-15T12:08:12.470Z,18.17
2019-05-15T12:10:38.959Z,18.29
2019-05-15T12:13:03.597Z,18.29
2019-05-15T12:15:31.632Z,18.35
2019-05-15T12:17:59.254Z,17.88
2019-05-15T12:20:28.608Z,17.64
2019-05-15T12:22:54.197Z,17.45
2019-05-15T12:25:21.648Z,17.35
2019-05-15T12:27:49.324Z,17.35
2019-05-15T12:30:19.645Z,17.57
2019-05-15T12:32:44.573Z,17.90
2019-05-15T12:35:12.051Z,18.21
2019-05-15T12:37:40.213Z,18.20
2019-05-15T12:59:48.123Z,17.89
2019-05-15T13:02:15.632Z,17.82
2019-05-15T13:04:43.066Z,17.74
2019-05-15T13:07:16.473Z,17.83
2019-05-15T13:09:38.232Z,17.92
2019-05-15T13:12:05.658Z,18.28
2019-05-15T13:14:33.116Z,18.45
2019-05-15T13:17:00.821Z,18.42
2019-05-15T13:19:28.548Z,18.46
2019-05-15T13:21:57.841Z,18.36
2019-05-15T13:24:23.335Z,18.28
2019-05-15T13:26:50.815Z,18.22
2019-05-15T13:29:18.409Z,18.01
2019-05-15T13:31:47.668Z,18.01
2019-05-15T13:34:13.361Z,18.23
2019-05-15T13:36:40.863Z,18.43
2019-05-15T13:39:08.436Z,18.31
2019-05-15T13:41:38.410Z,18.18
2019-05-15T13:44:03.450Z,18.34
2019-05-15T13:46:32.938Z,18.26
2019-05-15T13:48:59.465Z,18.34
2019-05-15T13:51:28.818Z,18.58
2019-05-15T13:53:54.093Z,18.50
2019-05-15T13:56:21.577Z,18.44
2019-05-15T13:58:49.038Z,18.48
2019-05-15T14:01:19.244Z,18.17
2019-05-15T14:03:44.238Z,17.92
2019-05-15T14:06:11.770Z,18.22
2019-05-15T14:08:39.283Z,18.41
2019-05-15T14:11:08.626Z,18.44
2019-05-15T14:13:34.247Z,18.40
2019-05-15T14:16:01.791Z,18.32
2019-05-15T14:18:29.300Z,18.38
2019-05-15T14:20:58.422Z,18.42
2019-05-15T14:23:24.267Z,18.34
2019-05-15T14:25:51.830Z,18.21
2019-05-15T14:28:19.283Z,18.33
2019-05-15T14:30:46.791Z,18.14
2019-05-15T14:33:14.321Z,18.18
2019-05-15T14:35:41.923Z,18.32
2019-05-15T14:38:11.037Z,18.44
2019-05-15T14:40:37.058Z,18.42
2019-05-15T14:43:04.536Z,18.37
2019-05-15T14:45:32.152Z,18.24
2019-05-15T14:47:59.667Z,18.00
2019-05-15T14:50:28.389Z,18.06
2019-05-15T14:52:54.632Z,18.05
2019-05-15T14:55:22.214Z,18.14
2019-05-15T14:57:50.632Z,18.12
2019-05-15T15:00:19.880Z,18.09
2019-05-15T15:02:45.655Z,17.91
2019-05-15T15:05:13.148Z,17.99
2019-05-15T15:07:41.183Z,17.78
2019-05-15T15:10:08.654Z,17.65
2019-05-15T15:12:39.160Z,17.79
2019-05-15T15:15:03.706Z,17.87
2019-05-15T15:17:31.159Z,17.70
2019-05-15T15:20:00.162Z,17.59
2019-05-15T15:22:28.386Z,17.51
2019-05-15T15:24:53.715Z,17.59
2019-05-15T15:27:21.318Z,17.67
2019-05-15T15:29:48.818Z,17.75
2019-05-15T15:32:16.287Z,17.58
2019-05-15T15:34:43.746Z,17.50
2019-05-15T15:37:11.595Z,17.48
2019-05-15T15:39:39.259Z,17.50
2019-05-15T15:42:08.588Z,17.49
2019-05-15T15:44:34.732Z,17.41
2019-05-15T15:47:02.201Z,17.29
2019-05-15T15:49:29.855Z,17.37
2019-05-15T15:51:58.461Z,17.26
2019-05-15T15:54:27.989Z,17.30
2019-05-15T15:56:53.913Z,17.14
2019-05-15T15:59:21.863Z,17.19
2019-05-15T16:01:49.671Z,17.10
2019-05-15T16:04:18.732Z,16.89
2019-05-15T16:06:44.578Z,16.84
2019-05-15T16:09:12.114Z,16.83
2019-05-15T16:11:39.588Z,16.87
2019-05-15T16:14:09.223Z,16.78
2019-05-15T16:16:37.917Z,16.66
2019-05-15T16:19:03.021Z,16.66
2019-05-15T16:21:31.137Z,16.55
2019-05-15T16:23:58.597Z,16.39
2019-05-15T16:26:26.082Z,16.28
2019-05-15T16:28:54.329Z,16.31
2019-05-15T16:31:21.811Z,16.29
2019-05-15T16:33:49.265Z,16.27
2019-05-15T16:36:18.339Z,16.16
2019-05-15T16:38:44.341Z,16.07
2019-05-15T16:41:11.796Z,15.96
2019-05-15T16:43:39.331Z,15.91
2019-05-15T16:46:09.187Z,15.96
2019-05-15T16:48:34.962Z,15.94
2019-05-15T16:51:02.502Z,16.02
2019-05-15T16:53:29.963Z,15.97
2019-05-15T16:55:58.662Z,15.86
2019-05-15T16:58:25.432Z,15.83
2019-05-15T17:00:53.163Z,15.69
2019-05-15T17:03:20.620Z,15.61
2019-05-15T17:05:48.205Z,15.67
2019-05-15T17:08:17.745Z,15.74
2019-05-15T17:10:43.340Z,15.66
2019-05-15T17:13:10.850Z,15.63
2019-05-15T17:15:38.590Z,15.69
2019-05-15T17:18:08.994Z,15.80
2019-05-15T17:20:34.391Z,15.77
2019-05-15T17:23:01.887Z,15.69
2019-05-15T17:25:29.355Z,15.59
2019-05-15T17:27:58.431Z,15.63
2019-05-15T17:30:24.400Z,15.58
2019-05-15T17:32:51.880Z,15.56
2019-05-15T17:35:19.453Z,15.58
2019-05-15T17:37:48.720Z,15.44
2019-05-15T17:40:15.113Z,15.40
2019-05-15T17:42:42.684Z,15.38
2019-05-15T17:45:10.229Z,15.29
2019-05-15T17:47:38.732Z,15.22
2019-05-15T17:50:05.195Z,15.15
2019-05-15T17:52:32.659Z,15.04
2019-05-15T17:55:00.140Z,14.98
2019-05-15T17:57:28.613Z,14.98
2019-05-15T17:59:55.797Z,14.89
2019-05-15T18:02:23.311Z,14.86
2019-05-15T18:04:50.858Z,14.80
2019-05-15T18:07:18.963Z,14.68
2019-05-15T18:09:51.563Z,14.67
2019-05-15T18:12:14.207Z,14.61
2019-05-15T18:14:41.707Z,14.52
2019-05-15T18:17:09.968Z,14.47
2019-05-15T18:19:38.041Z,14.45
2019-05-15T18:22:05.075Z,14.31
2019-05-15T18:24:32.650Z,14.17
2019-05-15T18:27:00.281Z,14.10
2019-05-15T18:29:27.953Z,13.93
2019-05-15T18:31:55.605Z,13.82
2019-05-15T18:34:23.230Z,13.71
2019-05-15T18:36:50.710Z,13.61
2019-05-15T18:39:18.182Z,13.55
2019-05-15T18:41:45.676Z,13.54
2019-05-15T18:44:13.234Z,13.50
2019-05-15T18:46:40.931Z,13.37
2019-05-15T18:49:08.487Z,13.28
2019-05-15T18:51:38.415Z,13.28
2019-05-15T18:54:03.546Z,13.25
2019-05-15T18:56:31.017Z,13.19
2019-05-15T18:58:58.619Z,13.13
2019-05-15T19:01:28.278Z,13.04
2019-05-15T19:03:53.635Z,12.99
2019-05-15T19:06:21.525Z,12.90
2019-05-15T19:08:49.010Z,12.86
2019-05-15T19:11:18.362Z,12.83
2019-05-15T19:13:44.124Z,12.80
2019-05-15T19:16:11.683Z,12.80
2019-05-15T19:18:39.229Z,12.79
2019-05-15T19:21:07.948Z,12.73
2019-05-15T19:23:34.224Z,12.72
2019-05-15T19:26:01.732Z,12.72
2019-05-15T19:28:29.188Z,12.71
2019-05-15T19:30:58.554Z,12.71
2019-05-15T19:33:34.502Z,12.73
2019-05-15T19:35:51.763Z,12.74
2019-05-15T19:38:19.285Z,12.68
2019-05-15T19:40:47.869Z,12.64
2019-05-15T19:43:15.289Z,12.58
2019-05-15T19:45:42.829Z,12.56
2019-05-15T19:48:10.477Z,12.58
2019-05-15T19:50:38.413Z,12.56
2019-05-15T19:53:08.037Z,12.54
2019-05-15T19:55:33.480Z,12.55
2019-05-15T19:58:01.002Z,12.55
2019-05-15T20:00:28.816Z,12.55
2019-05-15T20:02:58.102Z,12.63
2019-05-15T20:05:23.545Z,12.63
2019-05-15T20:07:51.011Z,12.56
2019-05-15T20:10:18.795Z,12.54
2019-05-15T20:12:47.857Z,12.52
2019-05-15T20:15:13.511Z,12.50
2019-05-15T20:17:41.026Z,12.42
2019-05-15T20:20:08.914Z,12.39
2019-05-15T20:22:37.508Z,12.38
2019-05-15T20:25:03.534Z,12.32
2019-05-15T20:27:30.990Z,12.30
2019-05-15T20:29:58.723Z,12.28
2019-05-15T20:32:27.821Z,12.28
2019-05-15T20:34:53.788Z,12.22
2019-05-15T20:37:21.481Z,12.20
2019-05-15T20:39:50.174Z,12.17
2019-05-15T20:42:18.116Z,12.19
2019-05-15T20:44:45.178Z,12.19
2019-05-15T20:47:12.636Z,12.17
2019-05-15T20:49:41.330Z,12.13
2019-05-15T20:52:08.827Z,12.15
2019-05-15T20:54:38.608Z,12.14
2019-05-15T20:57:03.959Z,12.11
2019-05-15T20:59:31.398Z,12.12
2019-05-15T21:01:59.456Z,12.12
2019-05-15T21:04:28.071Z,12.14
2019-05-15T21:06:54.148Z,12.10
2019-05-15T21:09:21.675Z,12.07
2019-05-15T21:11:49.168Z,12.05
2019-05-15T21:14:16.629Z,12.03
2019-05-15T21:16:44.080Z,12.05
2019-05-15T21:19:11.555Z,12.07
2019-05-15T21:21:39.034Z,12.02
2019-05-15T21:24:06.527Z,11.98
2019-05-15T21:26:34.225Z,11.94
2019-05-15T21:29:01.733Z,11.89
2019-05-15T21:31:29.200Z,11.89
2019-05-15T21:33:58.756Z,11.83
2019-05-15T21:36:24.206Z,11.75
2019-05-15T21:38:51.666Z,11.76
2019-05-15T21:41:19.100Z,11.81
2019-05-15T21:43:48.239Z,11.84
2019-05-15T21:46:14.068Z,11.81
2019-05-15T21:48:41.543Z,11.81
2019-05-15T21:51:11.835Z,11.84
2019-05-15T21:53:38.757Z,11.77
2019-05-15T21:56:03.991Z,11.78
2019-05-15T21:58:31.633Z,11.84
2019-05-15T22:00:59.159Z,11.89
2019-05-15T22:03:28.526Z,11.87
2019-05-15T22:05:54.120Z,11.88
2019-05-15T22:08:21.570Z,11.78
2019-05-15T22:10:49.061Z,11.70
2019-05-15T22:13:16.556Z,11.66
2019-05-15T22:15:44.023Z,11.67
2019-05-15T22:18:11.807Z,11.72
2019-05-15T22:20:38.963Z,11.70
2019-05-15T22:23:08.228Z,11.63
2019-05-15T22:25:33.987Z,11.63
2019-05-15T22:28:01.431Z,11.65
2019-05-15T22:30:30.329Z,11.68
2019-05-15T22:32:58.463Z,11.62
2019-05-15T22:35:23.991Z,11.60
2019-05-15T22:37:51.466Z,11.63
2019-05-15T22:40:18.969Z,11.68
2019-05-15T22:42:48.611Z,11.71
2019-05-15T22:45:13.924Z,11.69
2019-05-15T22:47:41.430Z,11.65
2019-05-15T22:50:08.950Z,11.64
2019-05-15T22:52:38.726Z,11.63
2019-05-15T22:55:04.080Z,11.66
2019-05-15T22:57:31.594Z,11.68
2019-05-15T22:59:59.050Z,11.65
2019-05-15T23:02:26.493Z,11.56
2019-05-15T23:04:54.060Z,11.52
2019-05-15T23:07:21.558Z,11.52
2019-05-15T23:09:49.093Z,11.49
2019-05-15T23:12:18.282Z,11.45
2019-05-15T23:14:44.454Z,11.49
2019-05-15T23:17:11.910Z,11.44
2019-05-15T23:19:39.495Z,11.44
2019-05-15T23:22:08.390Z,11.35
2019-05-15T23:24:34.558Z,11.23
2019-05-15T23:27:02.039Z,11.27
2019-05-15T23:29:29.491Z,11.30
2019-05-15T23:31:58.434Z,11.28
2019-05-15T23:34:27.873Z,11.32
2019-05-15T23:36:52.981Z,11.28
2019-05-15T23:39:20.423Z,11.26
2019-05-15T23:41:47.895Z,11.27
2019-05-15T23:44:15.336Z,11.23
2019-05-15T23:46:42.798Z,11.26
2019-05-15T23:49:10.256Z,11.27
2019-05-15T23:51:38.471Z,11.27
2019-05-15T23:54:05.195Z,11.27
2019-05-15T23:56:32.639Z,11.27
2019-05-15T23:59:00.090Z,11.24
